createdAt,value
2023-04-26T00:00:25.824Z,84.99
2023-04-26T00:01:25.823Z,85.03
2023-04-26T00:02:25.859Z,84.99
2023-04-26T00:03:25.935Z,84.58
2023-04-26T00:04:25.966Z,84.82
2023-04-26T00:05:25.769Z,84.51
2023-04-26T00:06:25.735Z,84.72
2023-04-26T00:07:25.778Z,85.09
2023-04-26T00:08:25.727Z,84.51
2023-04-26T00:09:25.713Z,84.82
2023-04-26T00:10:25.695Z,85.13
2023-04-26T00:11:25.687Z,85.13
2023-04-26T00:12:25.674Z,85.03
2023-04-26T00:13:25.691Z,84.82
2023-04-26T00:14:25.675Z,85.03
2023-04-26T00:15:25.642Z,85.34
2023-04-26T00:16:25.724Z,85.48
2023-04-26T00:17:25.629Z,85.34
2023-04-26T00:18:25.608Z,84.82
2023-04-26T00:19:25.609Z,85.27
2023-04-26T00:20:25.581Z,85.27
2023-04-26T00:21:25.583Z,85.13
2023-04-26T00:22:25.579Z,85.03
2023-04-26T00:23:25.549Z,84.92
2023-04-26T00:24:25.551Z,85.48
2023-04-26T00:25:25.528Z,85.24
2023-04-26T00:26:25.520Z,85.24
2023-04-26T00:27:25.528Z,85.03
2023-04-26T00:28:25.514Z,85.24
2023-04-26T00:29:25.479Z,85.13
2023-04-26T00:30:25.468Z,85.55
2023-04-26T00:31:25.484Z,85.65
2023-04-26T00:32:25.500Z,85.58
2023-04-26T00:33:25.476Z,85.79
2023-04-26T00:34:25.429Z,85.79
2023-04-26T00:35:25.425Z,85.69
2023-04-26T00:36:25.403Z,85.89
2023-04-26T00:37:25.403Z,85.89
2023-04-26T00:38:25.411Z,86.00
2023-04-26T00:39:25.373Z,85.89
2023-04-26T00:40:25.399Z,85.79
2023-04-26T00:41:25.355Z,86.31
2023-04-26T00:42:25.339Z,86.31
2023-04-26T00:43:25.329Z,86.00
2023-04-26T00:44:25.317Z,86.00
2023-04-26T00:45:25.307Z,86.00
2023-04-26T00:46:25.440Z,86.21
2023-04-26T00:47:25.347Z,86.55
2023-04-26T00:48:25.299Z,86.35
2023-04-26T00:49:25.260Z,86.10
2023-04-26T00:50:25.253Z,86.45
2023-04-26T00:51:25.259Z,86.15
2023-04-26T00:52:25.242Z,86.10
2023-04-26T00:53:25.246Z,86.52
2023-04-26T00:54:25.209Z,86.52
2023-04-26T00:55:25.217Z,86.21
2023-04-26T00:56:25.203Z,86.10
2023-04-26T00:57:25.266Z,85.83
2023-04-26T00:58:25.176Z,86.10
2023-04-26T00:59:25.170Z,86.10
2023-04-26T01:00:25.142Z,86.45
2023-04-26T01:01:25.143Z,86.10
2023-04-26T01:02:25.260Z,86.15
2023-04-26T01:03:25.338Z,85.52
2023-04-26T01:04:25.283Z,85.94
2023-04-26T01:05:25.083Z,85.89
2023-04-26T01:06:25.072Z,86.18
2023-04-26T01:07:25.067Z,86.04
2023-04-26T01:08:25.069Z,86.15
2023-04-26T01:09:25.043Z,86.45
2023-04-26T01:10:25.042Z,86.66
2023-04-26T01:11:25.029Z,86.76
2023-04-26T01:12:25.010Z,87.38
2023-04-26T01:13:24.991Z,87.18
2023-04-26T01:14:24.980Z,87.38
2023-04-26T01:15:24.978Z,87.07
2023-04-26T01:16:25.027Z,87.38
2023-04-26T01:17:25.017Z,86.76
2023-04-26T01:18:24.940Z,86.60
2023-04-26T01:19:24.926Z,86.55
2023-04-26T01:20:24.943Z,86.60
2023-04-26T01:21:24.915Z,86.39
2023-04-26T01:22:24.893Z,86.49
2023-04-26T01:23:24.897Z,87.12
2023-04-26T01:24:24.866Z,87.32
2023-04-26T01:25:24.863Z,86.80
2023-04-26T01:26:24.866Z,87.01
2023-04-26T01:27:24.842Z,86.80
2023-04-26T01:28:24.829Z,87.32
2023-04-26T01:29:24.833Z,86.91
2023-04-26T01:30:24.805Z,86.85
2023-04-26T01:31:24.824Z,87.05
2023-04-26T01:32:24.856Z,87.26
2023-04-26T01:33:24.792Z,87.63
2023-04-26T01:34:24.763Z,87.57
2023-04-26T01:35:24.758Z,87.37
2023-04-26T01:36:24.817Z,87.88
2023-04-26T01:37:24.738Z,87.57
2023-04-26T01:38:24.748Z,87.57
2023-04-26T01:39:24.709Z,87.26
2023-04-26T01:40:24.709Z,87.71
2023-04-26T01:41:24.702Z,87.68
2023-04-26T01:42:24.670Z,88.20
2023-04-26T01:43:24.664Z,88.09
2023-04-26T01:44:24.659Z,88.09
2023-04-26T01:45:24.639Z,87.68
2023-04-26T01:46:24.677Z,87.88
2023-04-26T01:47:24.647Z,87.68
2023-04-26T01:48:24.627Z,87.99
2023-04-26T01:49:24.598Z,87.47
2023-04-26T01:50:24.585Z,87.57
2023-04-26T01:51:24.605Z,88.30
2023-04-26T01:52:24.617Z,87.82
2023-04-26T01:53:24.572Z,87.68
2023-04-26T01:54:24.541Z,88.13
2023-04-26T01:55:24.534Z,88.20
2023-04-26T01:56:24.519Z,88.20
2023-04-26T01:57:24.534Z,87.57
2023-04-26T01:58:24.519Z,88.51
2023-04-26T01:59:24.490Z,88.13
2023-04-26T02:00:24.481Z,87.88
2023-04-26T02:01:24.497Z,88.54
2023-04-26T02:02:24.484Z,88.51
2023-04-26T02:03:24.546Z,88.44
2023-04-26T02:04:24.454Z,88.44
2023-04-26T02:05:24.469Z,88.40
2023-04-26T02:06:24.413Z,88.54
2023-04-26T02:07:24.413Z,88.20
2023-04-26T02:08:24.409Z,87.92
2023-04-26T02:09:24.382Z,88.23
2023-04-26T02:10:24.364Z,88.23
2023-04-26T02:11:24.393Z,88.23
2023-04-26T02:12:24.354Z,87.71
2023-04-26T02:13:24.333Z,88.20
2023-04-26T02:14:24.345Z,88.34
2023-04-26T02:15:24.319Z,88.44
2023-04-26T02:16:24.386Z,88.02
2023-04-26T02:17:24.312Z,88.40
2023-04-26T02:18:24.279Z,88.51
2023-04-26T02:19:24.279Z,87.88
2023-04-26T02:20:24.257Z,88.23
2023-04-26T02:21:24.246Z,87.78
2023-04-26T02:22:24.243Z,88.13
2023-04-26T02:23:24.271Z,88.09
2023-04-26T02:24:24.319Z,88.75
2023-04-26T02:25:24.201Z,88.51
2023-04-26T02:26:24.192Z,88.44
2023-04-26T02:27:24.188Z,87.92
2023-04-26T02:28:24.177Z,88.30
2023-04-26T02:29:39.888Z,88.23
2023-04-26T02:30:25.195Z,88.71
2023-04-26T02:31:24.165Z,88.71
2023-04-26T02:32:24.156Z,88.65
2023-04-26T02:33:24.137Z,88.75
2023-04-26T02:34:24.113Z,89.03
2023-04-26T02:35:24.109Z,89.06
2023-04-26T02:36:24.101Z,89.06
2023-04-26T02:37:24.070Z,89.06
2023-04-26T02:38:24.099Z,88.92
2023-04-26T02:39:24.056Z,89.13
2023-04-26T02:40:24.065Z,89.06
2023-04-26T02:41:24.028Z,88.96
2023-04-26T02:42:24.031Z,89.06
2023-04-26T02:43:24.026Z,89.17
2023-04-26T02:44:24.010Z,89.58
2023-04-26T02:45:23.984Z,89.58
2023-04-26T02:46:23.980Z,89.48
2023-04-26T02:47:23.989Z,89.48
2023-04-26T02:48:23.977Z,89.27
2023-04-26T02:49:23.945Z,89.06
2023-04-26T02:50:23.958Z,88.96
2023-04-26T02:51:23.915Z,88.96
2023-04-26T02:52:23.905Z,88.65
2023-04-26T02:53:23.908Z,88.75
2023-04-26T02:54:23.909Z,88.96
2023-04-26T02:55:23.888Z,89.69
2023-04-26T02:56:23.889Z,89.37
2023-04-26T02:57:23.853Z,89.31
2023-04-26T02:58:23.843Z,89.52
2023-04-26T02:59:23.843Z,89.94
2023-04-26T03:00:23.855Z,89.94
2023-04-26T03:01:23.836Z,90.25
2023-04-26T03:02:23.914Z,89.83
2023-04-26T03:03:23.906Z,89.73
2023-04-26T03:04:23.884Z,90.45
2023-04-26T03:05:23.778Z,90.56
2023-04-26T03:06:23.775Z,90.04
2023-04-26T03:07:23.742Z,90.14
2023-04-26T03:08:23.743Z,90.25
2023-04-26T03:09:23.737Z,90.14
2023-04-26T03:10:23.721Z,90.14
2023-04-26T03:11:23.695Z,90.31
2023-04-26T03:12:23.777Z,90.31
2023-04-26T03:13:23.677Z,90.00
2023-04-26T03:14:23.683Z,90.52
2023-04-26T03:15:23.667Z,90.35
2023-04-26T03:16:23.742Z,90.10
2023-04-26T03:17:23.689Z,90.14
2023-04-26T03:18:23.626Z,90.10
2023-04-26T03:19:23.612Z,90.14
2023-04-26T03:20:23.615Z,89.73
2023-04-26T03:21:23.605Z,90.25
2023-04-26T03:22:23.591Z,90.14
2023-04-26T03:23:23.569Z,90.25
2023-04-26T03:24:23.558Z,89.94
2023-04-26T03:25:23.555Z,90.45
2023-04-26T03:26:23.540Z,90.45
2023-04-26T03:27:23.555Z,90.35
2023-04-26T03:28:23.605Z,90.35
2023-04-26T03:29:23.514Z,90.14
2023-04-26T03:30:23.507Z,90.45
2023-04-26T03:31:23.503Z,90.45
2023-04-26T03:32:23.489Z,90.04
2023-04-26T03:33:23.476Z,90.04
2023-04-26T03:34:23.467Z,90.81
2023-04-26T03:35:23.445Z,90.45
2023-04-26T03:36:23.428Z,90.45
2023-04-26T03:37:23.435Z,90.04
2023-04-26T03:38:23.409Z,90.45
2023-04-26T03:39:23.411Z,90.56
2023-04-26T03:40:23.414Z,90.56
2023-04-26T03:41:23.381Z,90.50
2023-04-26T03:42:23.374Z,90.50
2023-04-26T03:43:23.371Z,90.50
2023-04-26T03:44:23.566Z,90.50
2023-04-26T03:45:23.331Z,90.50
2023-04-26T03:46:23.359Z,90.60
2023-04-26T03:47:23.386Z,90.19
2023-04-26T03:48:23.301Z,90.54
2023-04-26T03:49:23.302Z,91.16
2023-04-26T03:50:23.299Z,91.06
2023-04-26T03:51:23.270Z,90.54
2023-04-26T03:52:23.271Z,90.54
2023-04-26T03:53:23.258Z,90.95
2023-04-26T03:54:23.254Z,91.16
2023-04-26T03:55:23.226Z,91.12
2023-04-26T03:56:23.212Z,91.37
2023-04-26T03:57:23.202Z,91.22
2023-04-26T03:58:23.210Z,91.22
2023-04-26T03:59:23.190Z,91.43
2023-04-26T04:00:23.189Z,91.22
2023-04-26T04:01:23.162Z,91.43
2023-04-26T04:02:23.252Z,91.78
2023-04-26T04:03:23.313Z,91.43
2023-04-26T04:04:23.551Z,91.95
2023-04-26T04:05:23.180Z,91.85
2023-04-26T04:06:23.126Z,91.74
2023-04-26T04:07:23.088Z,91.85
2023-04-26T04:08:23.083Z,91.85
2023-04-26T04:09:23.128Z,91.95
2023-04-26T04:10:23.105Z,91.60
2023-04-26T04:11:23.056Z,91.64
2023-04-26T04:12:23.038Z,91.80
2023-04-26T04:13:23.043Z,91.80
2023-04-26T04:14:23.025Z,91.70
2023-04-26T04:15:23.004Z,91.97
2023-04-26T04:16:23.069Z,91.60
2023-04-26T04:17:23.021Z,91.39
2023-04-26T04:18:22.972Z,91.55
2023-04-26T04:19:22.972Z,91.55
2023-04-26T04:20:22.958Z,91.24
2023-04-26T04:21:22.945Z,91.76
2023-04-26T04:22:22.927Z,91.14
2023-04-26T04:23:22.914Z,91.14
2023-04-26T04:24:22.922Z,91.03
2023-04-26T04:25:22.898Z,91.03
2023-04-26T04:26:22.891Z,90.72
2023-04-26T04:27:22.904Z,90.62
2023-04-26T04:28:22.860Z,90.41
2023-04-26T04:29:22.846Z,90.62
2023-04-26T04:30:22.855Z,90.83
2023-04-26T04:31:22.988Z,90.93
2023-04-26T04:32:22.901Z,90.31
2023-04-26T04:33:22.806Z,90.41
2023-04-26T04:34:22.828Z,90.41
2023-04-26T04:35:22.785Z,90.66
2023-04-26T04:36:22.773Z,91.03
2023-04-26T04:37:22.785Z,91.03
2023-04-26T04:38:22.753Z,91.03
2023-04-26T04:39:22.743Z,91.14
2023-04-26T04:40:22.748Z,91.03
2023-04-26T04:41:22.720Z,91.00
2023-04-26T04:42:22.710Z,91.14
2023-04-26T04:43:22.717Z,91.03
2023-04-26T04:44:22.691Z,90.62
2023-04-26T04:45:22.690Z,90.52
2023-04-26T04:46:22.740Z,90.52
2023-04-26T04:47:22.662Z,90.72
2023-04-26T04:48:22.692Z,90.83
2023-04-26T04:49:22.646Z,90.83
2023-04-26T04:50:22.628Z,90.83
2023-04-26T04:51:22.608Z,90.83
2023-04-26T04:52:22.619Z,90.72
2023-04-26T04:53:22.622Z,90.72
2023-04-26T04:54:22.582Z,90.62
2023-04-26T04:55:22.569Z,90.62
2023-04-26T04:56:22.576Z,90.72
2023-04-26T04:57:22.548Z,90.72
2023-04-26T04:58:22.549Z,90.31
2023-04-26T04:59:22.544Z,90.41
2023-04-26T05:00:22.527Z,90.62
2023-04-26T05:01:22.527Z,90.58
2023-04-26T05:02:22.626Z,90.52
2023-04-26T05:03:22.619Z,90.62
2023-04-26T05:04:22.699Z,90.72
2023-04-26T05:05:22.458Z,90.83
2023-04-26T05:06:22.470Z,90.72
2023-04-26T05:07:24.327Z,90.31
2023-04-26T05:08:22.434Z,91.14
2023-04-26T05:09:22.454Z,91.55
2023-04-26T05:10:22.420Z,91.35
2023-04-26T05:11:22.400Z,91.97
2023-04-26T05:12:22.405Z,91.76
2023-04-26T05:13:22.379Z,91.66
2023-04-26T05:14:22.368Z,91.45
2023-04-26T05:15:22.369Z,91.55
2023-04-26T05:16:22.400Z,91.35
2023-04-26T05:17:22.333Z,91.45
2023-04-26T05:18:22.355Z,91.76
2023-04-26T05:19:22.310Z,91.97
2023-04-26T05:20:22.432Z,91.62
2023-04-26T05:21:22.288Z,91.76
2023-04-26T05:22:22.286Z,91.93
2023-04-26T05:23:22.264Z,91.72
2023-04-26T05:24:22.269Z,91.93
2023-04-26T05:25:22.803Z,90.95
2023-04-26T05:26:22.274Z,90.95
2023-04-26T05:27:22.221Z,90.50
2023-04-26T05:28:22.217Z,90.50
2023-04-26T05:29:22.196Z,90.19
2023-04-26T05:30:22.203Z,90.29
2023-04-26T05:31:22.209Z,89.62
2023-04-26T05:32:22.192Z,89.77
2023-04-26T05:33:22.174Z,89.62
2023-04-26T05:34:22.153Z,89.00
2023-04-26T05:35:22.133Z,89.52
2023-04-26T05:36:22.141Z,89.58
2023-04-26T05:37:22.125Z,89.13
2023-04-26T05:38:22.116Z,88.51
2023-04-26T05:39:22.082Z,87.88
2023-04-26T05:40:22.088Z,87.85
2023-04-26T05:41:22.080Z,87.64
2023-04-26T05:42:22.061Z,87.85
2023-04-26T05:43:22.058Z,87.39
2023-04-26T05:44:22.031Z,87.46
2023-04-26T05:45:22.041Z,86.83
2023-04-26T05:46:22.178Z,86.49
2023-04-26T05:47:21.996Z,84.94
2023-04-26T05:48:21.986Z,85.28
2023-04-26T05:49:22.002Z,85.22
2023-04-26T05:50:21.986Z,85.88
2023-04-26T05:51:21.969Z,87.02
2023-04-26T05:52:21.962Z,87.23
2023-04-26T05:53:21.947Z,87.43
2023-04-26T05:54:21.922Z,87.18
2023-04-26T05:55:21.908Z,87.18
2023-04-26T05:56:21.897Z,87.60
2023-04-26T05:57:21.990Z,87.29
2023-04-26T05:58:21.883Z,87.29
2023-04-26T05:59:21.863Z,87.60
2023-04-26T06:00:21.894Z,87.81
2023-04-26T06:01:21.845Z,87.54
2023-04-26T06:02:21.962Z,87.33
2023-04-26T06:03:22.106Z,87.54
2023-04-26T06:04:22.052Z,87.64
2023-04-26T06:05:21.980Z,87.85
2023-04-26T06:06:21.791Z,87.54
2023-04-26T06:07:21.768Z,87.95
2023-04-26T06:08:21.792Z,88.12
2023-04-26T06:09:21.763Z,88.12
2023-04-26T06:10:21.781Z,88.36
2023-04-26T06:11:21.792Z,88.22
2023-04-26T06:12:21.714Z,88.22
2023-04-26T06:13:21.704Z,88.12
2023-04-26T06:14:29.925Z,88.12
2023-04-26T06:15:22.695Z,88.06
2023-04-26T06:16:21.751Z,88.12
2023-04-26T06:17:21.725Z,88.06
2023-04-26T06:18:21.674Z,87.91
2023-04-26T06:19:21.635Z,88.16
2023-04-26T06:20:21.642Z,87.95
2023-04-26T06:21:21.616Z,88.43
2023-04-26T06:22:21.610Z,88.46
2023-04-26T06:23:21.589Z,88.53
2023-04-26T06:24:21.627Z,88.53
2023-04-26T06:25:21.614Z,88.64
2023-04-26T06:26:21.568Z,88.80
2023-04-26T06:27:21.556Z,88.07
2023-04-26T06:28:21.546Z,88.43
2023-04-26T06:29:21.553Z,87.97
2023-04-26T06:30:21.536Z,87.91
2023-04-26T06:31:21.551Z,87.60
2023-04-26T06:32:21.552Z,87.66
2023-04-26T06:33:21.481Z,87.66
2023-04-26T06:34:21.471Z,87.76
2023-04-26T06:35:21.478Z,87.35
2023-04-26T06:36:21.474Z,87.39
2023-04-26T06:37:21.441Z,87.35
2023-04-26T06:38:21.466Z,87.56
2023-04-26T06:39:21.427Z,87.56
2023-04-26T06:40:21.438Z,87.35
2023-04-26T06:41:21.426Z,87.04
2023-04-26T06:42:21.391Z,86.42
2023-04-26T06:43:21.380Z,87.35
2023-04-26T06:44:21.368Z,87.35
2023-04-26T06:45:21.369Z,86.94
2023-04-26T06:46:21.432Z,86.83
2023-04-26T06:47:21.346Z,87.25
2023-04-26T06:48:21.323Z,87.15
2023-04-26T06:49:21.312Z,87.04
2023-04-26T06:50:21.302Z,87.35
2023-04-26T06:51:21.297Z,87.56
2023-04-26T06:52:21.760Z,87.35
2023-04-26T06:53:23.142Z,87.56
2023-04-26T06:54:21.250Z,86.94
2023-04-26T06:55:21.266Z,86.52
2023-04-26T06:56:21.284Z,86.83
2023-04-26T06:57:21.220Z,86.83
2023-04-26T06:58:21.219Z,86.83
2023-04-26T06:59:21.238Z,86.42
2023-04-26T07:00:21.187Z,86.21
2023-04-26T07:01:21.216Z,86.52
2023-04-26T07:02:21.303Z,86.79
2023-04-26T07:03:21.397Z,85.97
2023-04-26T07:04:21.452Z,86.79
2023-04-26T07:05:21.516Z,86.18
2023-04-26T07:06:21.127Z,86.18
2023-04-26T07:07:21.140Z,86.79
2023-04-26T07:08:21.093Z,87.21
2023-04-26T07:09:21.094Z,86.03
2023-04-26T07:10:21.089Z,85.24
2023-04-26T07:11:21.666Z,85.55
2023-04-26T07:12:21.115Z,85.55
2023-04-26T07:13:21.052Z,85.66
2023-04-26T07:14:21.038Z,85.45
2023-04-26T07:15:21.020Z,85.24
2023-04-26T07:16:21.171Z,85.76
2023-04-26T07:17:20.996Z,86.07
2023-04-26T07:18:21.001Z,85.66
2023-04-26T07:19:21.095Z,85.55
2023-04-26T07:20:20.981Z,85.45
2023-04-26T07:21:20.956Z,85.45
2023-04-26T07:22:20.950Z,86.18
2023-04-26T07:23:20.927Z,85.86
2023-04-26T07:24:20.952Z,86.13
2023-04-26T07:25:20.904Z,86.76
2023-04-26T07:26:20.893Z,87.13
2023-04-26T07:27:20.886Z,85.78
2023-04-26T07:28:20.902Z,85.13
2023-04-26T07:29:20.863Z,84.78
2023-04-26T07:30:20.891Z,84.43
2023-04-26T07:31:20.841Z,83.71
2023-04-26T07:32:20.874Z,83.54
2023-04-26T07:33:20.893Z,81.99
2023-04-26T07:34:20.805Z,82.40
2023-04-26T07:35:20.824Z,81.85
2023-04-26T07:36:21.949Z,81.54
2023-04-26T07:37:20.783Z,81.68
2023-04-26T07:38:20.760Z,82.37
2023-04-26T07:39:20.749Z,82.47
2023-04-26T07:40:20.742Z,82.89
2023-04-26T07:41:20.789Z,82.33
2023-04-26T07:42:20.713Z,81.92
2023-04-26T07:43:20.719Z,81.71
2023-04-26T07:44:20.778Z,80.37
2023-04-26T07:45:20.774Z,80.62
2023-04-26T07:46:20.733Z,80.62
2023-04-26T07:47:20.673Z,80.37
2023-04-26T07:48:20.656Z,80.44
2023-04-26T07:49:20.640Z,80.27
2023-04-26T07:50:20.651Z,79.82
2023-04-26T07:51:20.624Z,79.10
2023-04-26T07:52:20.603Z,78.28
2023-04-26T07:53:20.600Z,77.76
2023-04-26T07:54:20.583Z,76.70
2023-04-26T07:55:20.593Z,76.07
2023-04-26T07:56:20.577Z,75.46
2023-04-26T07:57:20.551Z,74.77
2023-04-26T07:58:20.567Z,74.57
2023-04-26T07:59:20.526Z,75.15
2023-04-26T08:00:20.635Z,75.70
2023-04-26T08:01:20.516Z,76.18
2023-04-26T08:02:27.103Z,76.49
2023-04-26T08:03:21.664Z,76.42
2023-04-26T08:04:20.573Z,76.21
2023-04-26T08:05:20.682Z,76.97
2023-04-26T08:06:20.595Z,78.00
2023-04-26T08:07:20.462Z,78.00
2023-04-26T08:08:20.446Z,78.55
2023-04-26T08:09:20.415Z,78.48
2023-04-26T08:10:20.418Z,78.28
2023-04-26T08:11:20.403Z,78.07
2023-04-26T08:12:20.378Z,78.44
2023-04-26T08:13:20.412Z,78.44
2023-04-26T08:14:20.438Z,76.53
2023-04-26T08:15:20.352Z,77.83
2023-04-26T08:16:20.405Z,78.30
2023-04-26T08:17:20.330Z,79.09
2023-04-26T08:18:20.313Z,78.13
2023-04-26T08:19:20.308Z,76.69
2023-04-26T08:20:20.303Z,75.25
2023-04-26T08:21:20.318Z,74.60
2023-04-26T08:22:20.268Z,74.60
2023-04-26T08:23:20.274Z,73.98
2023-04-26T08:24:20.250Z,73.47
2023-04-26T08:25:20.235Z,73.98
2023-04-26T08:26:20.270Z,74.22
2023-04-26T08:27:20.211Z,74.84
2023-04-26T08:28:20.224Z,73.71
2023-04-26T08:29:20.215Z,73.81
2023-04-26T08:30:20.182Z,74.26
2023-04-26T08:31:20.184Z,74.77
2023-04-26T08:32:20.208Z,74.98
2023-04-26T08:33:20.149Z,75.08
2023-04-26T08:34:20.125Z,75.18
2023-04-26T08:35:20.128Z,75.18
2023-04-26T08:36:20.114Z,75.08
2023-04-26T08:37:20.098Z,75.39
2023-04-26T08:38:20.135Z,76.28
2023-04-26T08:39:20.076Z,77.72
2023-04-26T08:40:20.064Z,78.20
2023-04-26T08:41:20.056Z,76.25
2023-04-26T08:42:20.041Z,75.52
2023-04-26T08:43:20.052Z,75.12
2023-04-26T08:44:20.049Z,74.70
2023-04-26T08:45:20.027Z,74.29
2023-04-26T08:46:20.101Z,73.54
2023-04-26T08:47:19.986Z,73.50
2023-04-26T08:48:20.071Z,73.50
2023-04-26T08:49:19.984Z,73.78
2023-04-26T08:50:19.968Z,73.44
2023-04-26T08:51:19.945Z,71.18
2023-04-26T08:52:19.936Z,71.76
2023-04-26T08:53:19.940Z,71.25
2023-04-26T08:54:19.929Z,69.92
2023-04-26T08:55:20.008Z,69.64
2023-04-26T08:56:19.891Z,71.08
2023-04-26T08:57:19.895Z,72.07
2023-04-26T08:58:19.868Z,72.65
2023-04-26T08:59:19.884Z,71.45
2023-04-26T09:00:19.908Z,72.78
2023-04-26T09:01:19.898Z,73.27
2023-04-26T09:02:19.921Z,70.32
2023-04-26T09:03:19.894Z,70.15
2023-04-26T09:04:20.189Z,70.97
2023-04-26T09:05:19.826Z,71.08
2023-04-26T09:06:19.778Z,70.97
2023-04-26T09:07:19.774Z,72.10
2023-04-26T09:08:19.759Z,72.51
2023-04-26T09:09:19.783Z,71.48
2023-04-26T09:10:19.735Z,70.18
2023-04-26T09:11:19.756Z,71.04
2023-04-26T09:12:19.713Z,71.97
2023-04-26T09:13:19.704Z,72.58
2023-04-26T09:14:19.697Z,72.48
2023-04-26T09:15:19.693Z,70.53
2023-04-26T09:16:19.765Z,70.22
2023-04-26T09:17:19.703Z,71.01
2023-04-26T09:18:19.650Z,70.63
2023-04-26T09:19:19.639Z,70.94
2023-04-26T09:20:19.797Z,70.63
2023-04-26T09:21:19.631Z,70.42
2023-04-26T09:22:19.602Z,70.22
2023-04-26T09:23:19.641Z,71.76
2023-04-26T09:24:19.583Z,71.66
2023-04-26T09:25:19.570Z,71.79
2023-04-26T09:26:19.583Z,72.48
2023-04-26T09:27:19.548Z,72.17
2023-04-26T09:28:19.533Z,72.17
2023-04-26T09:29:19.548Z,71.83
2023-04-26T09:30:19.568Z,70.60
2023-04-26T09:31:19.561Z,70.39
2023-04-26T09:32:19.493Z,69.67
2023-04-26T09:33:19.632Z,69.78
2023-04-26T09:34:19.469Z,69.47
2023-04-26T09:35:19.485Z,67.69
2023-04-26T09:36:19.464Z,68.72
2023-04-26T09:37:19.457Z,67.18
2023-04-26T09:38:19.454Z,65.95
2023-04-26T09:39:19.414Z,65.98
2023-04-26T09:40:19.436Z,67.49
2023-04-26T09:41:19.400Z,67.90
2023-04-26T09:42:19.397Z,68.51
2023-04-26T09:43:19.369Z,68.54
2023-04-26T09:44:19.362Z,69.16
2023-04-26T09:45:19.347Z,69.37
2023-04-26T09:46:19.344Z,69.26
2023-04-26T09:47:19.339Z,69.13
2023-04-26T09:48:19.356Z,69.95
2023-04-26T09:49:19.307Z,71.80
2023-04-26T09:50:19.363Z,70.22
2023-04-26T09:51:19.279Z,69.64
2023-04-26T09:52:19.298Z,68.07
2023-04-26T09:53:19.268Z,68.27
2023-04-26T09:54:19.279Z,67.97
2023-04-26T09:55:33.993Z,67.86
2023-04-26T09:56:20.238Z,67.76
2023-04-26T09:57:19.216Z,67.66
2023-04-26T09:58:19.205Z,65.41
2023-04-26T09:59:19.215Z,66.02
2023-04-26T10:00:19.194Z,65.71
2023-04-26T10:01:19.290Z,66.74
2023-04-26T10:02:19.171Z,67.38
2023-04-26T10:03:19.350Z,66.56
2023-04-26T10:04:19.209Z,65.54
2023-04-26T10:05:19.140Z,66.67
2023-04-26T10:06:19.128Z,67.79
2023-04-26T10:07:19.111Z,67.90
2023-04-26T10:08:19.191Z,67.90
2023-04-26T10:09:19.104Z,67.59
2023-04-26T10:10:19.154Z,67.08
2023-04-26T10:11:19.064Z,67.21
2023-04-26T10:12:19.056Z,68.44
2023-04-26T10:13:19.078Z,69.64
2023-04-26T10:14:19.023Z,68.62
2023-04-26T10:15:19.033Z,69.10
2023-04-26T10:16:19.018Z,68.68
2023-04-26T10:17:18.995Z,68.17
2023-04-26T10:18:18.978Z,67.18
2023-04-26T10:19:18.987Z,67.18
2023-04-26T10:20:18.994Z,69.06
2023-04-26T10:21:18.954Z,69.06
2023-04-26T10:22:18.933Z,69.13
2023-04-26T10:23:18.932Z,68.54
2023-04-26T10:24:18.943Z,68.62
2023-04-26T10:25:18.932Z,67.49
2023-04-26T10:26:18.904Z,67.72
2023-04-26T10:27:18.889Z,67.83
2023-04-26T10:28:18.898Z,67.11
2023-04-26T10:29:18.868Z,68.96
2023-04-26T10:30:18.856Z,69.37
2023-04-26T10:31:18.876Z,69.33
2023-04-26T10:32:18.910Z,68.82
2023-04-26T10:33:18.854Z,68.10
2023-04-26T10:34:18.797Z,67.11
2023-04-26T10:35:18.793Z,68.03
2023-04-26T10:36:18.832Z,68.65
2023-04-26T10:37:18.804Z,67.52
2023-04-26T10:38:18.759Z,66.83
2023-04-26T10:39:18.754Z,66.22
2023-04-26T10:40:18.764Z,67.44
2023-04-26T10:41:18.737Z,65.91
2023-04-26T10:42:18.726Z,66.04
2023-04-26T10:43:18.713Z,66.14
2023-04-26T10:44:18.700Z,67.65
2023-04-26T10:45:18.701Z,67.96
2023-04-26T10:46:18.754Z,68.16
2023-04-26T10:47:18.704Z,70.01
2023-04-26T10:48:18.671Z,69.60
2023-04-26T10:49:18.641Z,69.40
2023-04-26T10:50:18.626Z,69.57
2023-04-26T10:51:18.628Z,69.88
2023-04-26T10:52:18.606Z,68.44
2023-04-26T10:53:18.603Z,67.93
2023-04-26T10:54:18.590Z,65.47
2023-04-26T10:55:18.576Z,65.91
2023-04-26T10:56:18.604Z,65.91
2023-04-26T10:57:18.619Z,66.01
2023-04-26T10:58:18.540Z,65.19
2023-04-26T10:59:36.359Z,65.91
2023-04-26T11:00:19.521Z,66.01
2023-04-26T11:01:18.579Z,65.70
2023-04-26T11:02:18.525Z,65.80
2023-04-26T11:03:18.623Z,65.80
2023-04-26T11:04:18.606Z,66.11
2023-04-26T11:05:18.461Z,66.01
2023-04-26T11:06:18.461Z,65.91
2023-04-26T11:07:18.438Z,65.50
2023-04-26T11:08:18.459Z,66.83
2023-04-26T11:09:18.425Z,67.76
2023-04-26T11:10:18.414Z,67.38
2023-04-26T11:11:18.397Z,67.48
2023-04-26T11:12:18.422Z,68.68
2023-04-26T11:13:18.372Z,69.40
2023-04-26T11:14:18.380Z,69.50
2023-04-26T11:15:18.437Z,69.29
2023-04-26T11:16:18.373Z,69.19
2023-04-26T11:17:18.348Z,69.23
2023-04-26T11:18:18.360Z,69.81
2023-04-26T11:19:18.312Z,69.70
2023-04-26T11:20:18.338Z,69.70
2023-04-26T11:21:18.392Z,69.50
2023-04-26T11:22:18.276Z,69.81
2023-04-26T11:23:18.281Z,68.71
2023-04-26T11:24:18.272Z,69.32
2023-04-26T11:25:18.261Z,69.74
2023-04-26T11:26:18.252Z,69.94
2023-04-26T11:27:18.228Z,70.63
2023-04-26T11:28:18.270Z,70.01
2023-04-26T11:29:18.195Z,69.70
2023-04-26T11:30:18.194Z,67.65
2023-04-26T11:31:18.262Z,67.35
2023-04-26T11:32:18.192Z,67.41
2023-04-26T11:33:18.163Z,67.72
2023-04-26T11:34:18.139Z,65.67
2023-04-26T11:35:18.215Z,65.77
2023-04-26T11:36:18.125Z,65.88
2023-04-26T11:37:18.105Z,65.67
2023-04-26T11:38:18.099Z,67.62
2023-04-26T11:39:18.100Z,66.77
2023-04-26T11:40:18.094Z,66.77
2023-04-26T11:41:18.066Z,66.77
2023-04-26T11:42:18.059Z,66.25
2023-04-26T11:43:18.081Z,65.84
2023-04-26T11:44:18.061Z,65.33
2023-04-26T11:45:18.034Z,64.00
2023-04-26T11:46:18.055Z,64.00
2023-04-26T11:47:17.999Z,64.48
2023-04-26T11:48:18.027Z,65.92
2023-04-26T11:49:18.869Z,66.12
2023-04-26T11:50:17.969Z,65.37
2023-04-26T11:51:17.994Z,65.78
2023-04-26T11:52:17.953Z,64.01
2023-04-26T11:53:17.933Z,65.75
2023-04-26T11:54:17.927Z,64.90
2023-04-26T11:55:17.909Z,62.24
2023-04-26T11:56:17.973Z,61.01
2023-04-26T11:57:18.367Z,60.10
2023-04-26T11:58:17.888Z,60.10
2023-04-26T11:59:17.865Z,58.15
2023-04-26T12:00:17.945Z,59.81
2023-04-26T12:01:17.873Z,59.41
2023-04-26T12:02:17.895Z,61.55
2023-04-26T12:03:18.033Z,62.45
2023-04-26T12:04:18.085Z,59.78
2023-04-26T12:05:17.839Z,57.66
2023-04-26T12:06:17.829Z,60.22
2023-04-26T12:07:17.774Z,60.42
2023-04-26T12:08:17.767Z,61.52
2023-04-26T12:09:17.767Z,61.93
2023-04-26T12:10:17.743Z,61.01
2023-04-26T12:11:17.747Z,61.43
2023-04-26T12:12:17.739Z,62.27
2023-04-26T12:13:17.715Z,62.14
2023-04-26T12:14:17.705Z,63.78
2023-04-26T12:15:17.689Z,63.85
2023-04-26T12:16:26.261Z,61.98
2023-04-26T12:17:18.712Z,63.21
2023-04-26T12:18:17.964Z,63.07
2023-04-26T12:19:17.639Z,60.21
2023-04-26T12:20:17.632Z,58.07
2023-04-26T12:21:17.620Z,56.23
2023-04-26T12:22:17.618Z,57.58
2023-04-26T12:23:17.593Z,57.35
2023-04-26T12:24:17.600Z,57.35
2023-04-26T12:25:17.588Z,58.27
2023-04-26T12:26:17.568Z,59.60
2023-04-26T12:27:17.555Z,58.09
2023-04-26T12:28:17.550Z,58.20
2023-04-26T12:29:17.529Z,57.92
2023-04-26T12:30:17.555Z,59.04
2023-04-26T12:31:17.571Z,58.76
2023-04-26T12:32:17.541Z,61.29
2023-04-26T12:33:18.148Z,63.03
2023-04-26T12:34:17.484Z,63.41
2023-04-26T12:35:17.490Z,62.29
2023-04-26T12:36:17.458Z,59.53
2023-04-26T12:37:17.452Z,60.44
2023-04-26T12:38:17.438Z,61.36
2023-04-26T12:39:17.451Z,61.36
2023-04-26T12:40:17.416Z,61.77
2023-04-26T12:41:17.398Z,59.45
2023-04-26T12:42:17.406Z,59.04
2023-04-26T12:43:17.397Z,60.58
2023-04-26T12:44:18.971Z,60.58
2023-04-26T12:45:17.354Z,60.60
2023-04-26T12:46:17.424Z,61.22
2023-04-26T12:47:17.359Z,62.24
2023-04-26T12:48:17.869Z,63.44
2023-04-26T12:49:17.360Z,62.96
2023-04-26T12:50:18.624Z,62.73
2023-04-26T12:51:17.284Z,60.78
2023-04-26T12:52:17.278Z,59.45